ENOV Airport Information

Runway Information
Runway 06 Length 2920 ft width 98 ft
Elevation 241 ft Threshold 0 ft Heading 0
Runway 24 Length 2920 ft Width 98 ft
Elevation 238 ft Threshold 0 ft Heading 0
Airport Frequencies
Airport Navaids
Type NDB Name Baatvik Frequency 362 KHZ
Type NDB Name Hovden Frequency 389 KHZ
Airport Weather Information & NOTAM
ADDS - METARS form results

(0624 UTC 15 December 2018)
Data provider http://aviationweather.gov/metar/data/
 
METAR text: ENOV 150550Z 05007KT 010V130 9999 FEW055 02/M09 Q1027 RMK WIND 2175FT 13022KT
Conditions at: ENOV (ORSTA-VOLDA/HOVD, NO) observed 0550 UTC 15 December 2018
Temperature: 2.0°C (36°F)
Dewpoint: -9.0°C (16°F) [RH = 44%]
Pressure (altimeter): 30.32 inches Hg (1027.0 mb)
Winds: from the NE (50 degrees) at 8 MPH (7 knots; 3.6 m/s)
Visibility: 6 or more miles (10+ km)
Ceiling: at least 12,000 feet AGL
Clouds: few clouds at 5500 feet AGL
Weather: no significant weather observed at this time